createdAt,value
2022-08-14T00:01:24.005Z,59.46
2022-08-14T00:03:57.551Z,59.93
2022-08-14T00:06:32.300Z,59.57
2022-08-14T00:09:06.173Z,60.47
2022-08-14T00:11:40.247Z,60.39
2022-08-14T00:14:17.500Z,59.98
2022-08-14T00:16:55.779Z,60.03
2022-08-14T00:19:29.384Z,60.60
2022-08-14T00:22:06.575Z,60.43
2022-08-14T00:24:39.740Z,60.68
2022-08-14T00:27:13.259Z,61.00
2022-08-14T00:29:50.310Z,60.95
2022-08-14T00:32:52.007Z,61.64
2022-08-14T00:35:16.672Z,61.81
2022-08-14T00:37:51.930Z,62.71
2022-08-14T00:40:33.066Z,61.86
2022-08-14T00:43:07.919Z,61.11
2022-08-14T00:45:41.449Z,61.43
2022-08-14T00:48:14.552Z,61.09
2022-08-14T00:51:10.669Z,61.15
2022-08-14T00:53:50.312Z,61.08
2022-08-14T00:56:26.641Z,61.40
2022-08-14T00:59:04.789Z,61.91
2022-08-14T01:01:38.869Z,61.86
2022-08-14T01:04:37.744Z,61.65
2022-08-14T01:07:09.036Z,61.99
2022-08-14T01:09:43.758Z,62.43
2022-08-14T01:12:27.320Z,62.01
2022-08-14T01:15:05.387Z,62.80
2022-08-14T01:18:00.376Z,63.29
2022-08-14T01:20:51.729Z,63.56
2022-08-14T01:23:26.386Z,63.40
2022-08-14T01:26:34.349Z,63.07
2022-08-14T01:29:11.004Z,62.93
2022-08-14T01:32:04.492Z,63.37
2022-08-14T01:35:19.618Z,63.17
2022-08-14T01:37:36.724Z,62.99
2022-08-14T01:40:19.965Z,63.51
2022-08-14T01:42:58.638Z,63.33
2022-08-14T01:45:40.144Z,63.16
2022-08-14T01:48:14.592Z,63.42
2022-08-14T01:50:47.689Z,63.43
2022-08-14T01:53:22.713Z,63.57
2022-08-14T01:55:58.918Z,63.27
2022-08-14T01:58:32.073Z,63.46
2022-08-14T02:01:06.767Z,63.42
2022-08-14T02:03:43.091Z,64.08
2022-08-14T02:06:32.909Z,63.53
2022-08-14T02:09:19.070Z,63.78
2022-08-14T02:11:56.349Z,63.97
2022-08-14T02:14:32.169Z,63.99
2022-08-14T02:17:12.248Z,63.95
2022-08-14T02:19:45.383Z,64.10
2022-08-14T02:22:28.698Z,64.08
2022-08-14T02:25:07.595Z,64.16
2022-08-14T02:28:22.349Z,63.85
2022-08-14T02:30:40.042Z,63.57
2022-08-14T02:33:13.350Z,64.48
2022-08-14T02:35:49.911Z,64.51
2022-08-14T02:38:29.961Z,64.93
2022-08-14T02:41:08.979Z,64.51
2022-08-14T02:43:46.375Z,65.00
2022-08-14T02:46:26.959Z,65.03
2022-08-14T02:49:06.624Z,65.10
2022-08-14T02:51:41.285Z,65.55
2022-08-14T02:54:19.757Z,65.88
2022-08-14T02:57:16.604Z,66.17
2022-08-14T02:59:50.043Z,66.33
2022-08-14T03:02:33.493Z,66.95
2022-08-14T03:05:17.431Z,67.27
2022-08-14T03:07:52.817Z,67.60
2022-08-14T03:10:32.302Z,67.33
2022-08-14T03:13:06.705Z,67.50
2022-08-14T03:15:58.135Z,67.24
2022-08-14T03:18:32.819Z,67.17
2022-08-14T03:21:08.677Z,67.27
2022-08-14T03:23:43.439Z,67.46
2022-08-14T03:26:30.402Z,67.47
2022-08-14T03:29:05.266Z,68.16
2022-08-14T03:31:51.267Z,67.45
2022-08-14T03:34:52.663Z,67.97
2022-08-14T03:37:37.370Z,67.61
2022-08-14T03:40:17.652Z,67.99
2022-08-14T03:42:51.798Z,68.63
2022-08-14T03:45:35.347Z,68.84
2022-08-14T03:48:30.257Z,68.69
2022-08-14T03:51:04.861Z,68.64
2022-08-14T03:53:44.093Z,68.54
2022-08-14T03:56:21.453Z,68.80
2022-08-14T03:58:59.196Z,69.17
2022-08-14T04:01:39.270Z,69.37
2022-08-14T04:04:16.072Z,68.67
2022-08-14T04:06:51.435Z,68.84
2022-08-14T04:09:26.717Z,68.92
2022-08-14T04:12:00.201Z,68.99
2022-08-14T04:14:37.137Z,69.16
2022-08-14T04:17:11.249Z,68.99
2022-08-14T04:19:47.472Z,69.18
2022-08-14T04:22:22.190Z,69.00
2022-08-14T04:24:55.661Z,68.68
2022-08-14T04:27:29.399Z,68.75
2022-08-14T04:30:05.567Z,68.99
2022-08-14T04:33:02.434Z,68.73
2022-08-14T04:35:55.336Z,69.14
2022-08-14T04:38:44.142Z,68.78
2022-08-14T04:41:38.126Z,69.33
2022-08-14T04:44:36.154Z,69.73
2022-08-14T04:47:27.096Z,69.52
2022-08-14T04:50:05.002Z,69.10
2022-08-14T04:52:39.618Z,69.32
2022-08-14T04:55:12.722Z,69.47
2022-08-14T04:57:47.326Z,69.46
2022-08-14T05:00:22.162Z,69.11
2022-08-14T05:02:58.028Z,69.15
2022-08-14T05:05:32.750Z,70.04
2022-08-14T05:08:32.182Z,70.67
2022-08-14T05:11:11.865Z,70.32
2022-08-14T05:14:33.700Z,70.20
2022-08-14T05:16:39.867Z,69.50
2022-08-14T05:19:18.973Z,69.21
2022-08-14T05:22:18.862Z,69.24
2022-08-14T05:24:53.729Z,68.05
2022-08-14T05:27:30.928Z,67.61
2022-08-14T05:30:08.505Z,66.61
2022-08-14T05:32:42.419Z,63.50
2022-08-14T05:35:21.759Z,60.64
2022-08-14T05:37:55.181Z,58.69
2022-08-14T05:40:30.040Z,56.86
2022-08-14T05:43:06.833Z,55.29
2022-08-14T05:45:40.526Z,53.88
2022-08-14T05:48:32.945Z,51.88
2022-08-14T05:51:07.171Z,51.19
2022-08-14T05:53:42.466Z,50.31
2022-08-14T05:56:17.201Z,49.24
2022-08-14T05:58:50.305Z,48.35
2022-08-14T06:01:23.549Z,48.02
2022-08-14T06:03:57.023Z,47.22
2022-08-14T06:06:32.661Z,46.61
2022-08-14T06:09:10.535Z,46.00
2022-08-14T06:11:45.071Z,45.87
2022-08-14T06:14:24.076Z,44.66
2022-08-14T06:16:57.412Z,43.83
2022-08-14T06:19:30.705Z,43.19
2022-08-14T06:22:04.195Z,42.63
2022-08-14T06:24:37.348Z,42.34
2022-08-14T06:27:18.507Z,41.66
2022-08-14T06:29:55.735Z,41.44
2022-08-14T06:32:38.156Z,40.14
2022-08-14T06:35:14.716Z,40.48
2022-08-14T06:37:51.456Z,38.97
2022-08-14T06:40:28.679Z,38.42
2022-08-14T06:43:05.624Z,38.16
2022-08-14T06:45:42.430Z,37.46
2022-08-14T06:48:17.628Z,36.93
2022-08-14T06:50:52.258Z,35.69
2022-08-14T06:53:27.514Z,36.63
2022-08-14T06:56:02.377Z,35.91
2022-08-14T06:58:37.016Z,36.35
2022-08-14T07:01:28.035Z,36.39
2022-08-14T07:04:31.022Z,35.64
2022-08-14T07:07:06.839Z,35.43
2022-08-14T07:09:44.235Z,34.44
2022-08-14T07:12:52.111Z,34.56
2022-08-14T07:15:18.361Z,34.13
2022-08-14T07:17:54.047Z,34.34
2022-08-14T07:20:30.626Z,34.80
2022-08-14T07:23:11.073Z,35.13
2022-08-14T07:25:56.706Z,35.30
2022-08-14T07:28:34.693Z,34.81
2022-08-14T07:31:12.341Z,34.19
2022-08-14T07:33:50.795Z,33.74
2022-08-14T07:36:27.528Z,33.46
2022-08-14T07:39:12.440Z,32.35
2022-08-14T07:41:46.606Z,31.98
2022-08-14T07:44:29.060Z,31.92
2022-08-14T07:47:07.804Z,32.46
2022-08-14T07:49:43.504Z,32.12
2022-08-14T07:52:22.255Z,31.36
2022-08-14T07:55:04.944Z,31.72
2022-08-14T07:57:38.349Z,32.55
2022-08-14T08:00:31.136Z,32.04
2022-08-14T08:03:10.863Z,31.46
2022-08-14T08:05:45.279Z,30.77
2022-08-14T08:08:27.211Z,31.37
2022-08-14T08:11:03.732Z,30.92
2022-08-14T08:13:49.074Z,30.40
2022-08-14T08:16:30.053Z,29.71
2022-08-14T08:19:12.821Z,30.13
2022-08-14T08:21:47.684Z,29.15
2022-08-14T08:24:21.042Z,29.17
2022-08-14T08:26:54.234Z,29.12
2022-08-14T08:29:28.544Z,28.44
2022-08-14T08:32:06.173Z,28.13
2022-08-14T08:34:49.311Z,27.65
2022-08-14T08:37:22.726Z,28.00
2022-08-14T08:40:01.987Z,27.69
2022-08-14T08:42:38.757Z,27.64
2022-08-14T08:45:17.637Z,26.87
2022-08-14T08:47:52.953Z,27.21
2022-08-14T08:53:06.817Z,27.89
2022-08-14T08:55:42.451Z,28.28
2022-08-14T08:58:24.934Z,27.31
2022-08-14T09:01:00.618Z,27.27
2022-08-14T09:03:37.880Z,26.83
2022-08-14T09:07:01.644Z,26.51
2022-08-14T09:09:22.827Z,26.06
2022-08-14T09:11:58.495Z,28.22
2022-08-14T09:14:36.458Z,27.50
2022-08-14T09:17:13.154Z,26.47
2022-08-14T09:19:47.936Z,27.47
2022-08-14T09:22:35.884Z,27.53
2022-08-14T09:25:09.843Z,26.59
2022-08-14T09:27:43.862Z,26.51
2022-08-14T09:30:32.121Z,26.61
2022-08-14T09:33:33.089Z,26.25
2022-08-14T09:36:28.945Z,26.49
2022-08-14T09:39:23.001Z,26.86
2022-08-14T09:42:36.781Z,26.36
2022-08-14T09:45:20.915Z,26.09
2022-08-14T09:47:57.260Z,26.33
2022-08-14T09:50:33.151Z,27.01
2022-08-14T09:53:18.315Z,26.87
2022-08-14T09:56:02.319Z,26.74
2022-08-14T09:58:41.535Z,26.48
2022-08-14T10:01:17.257Z,26.22
2022-08-14T10:03:55.611Z,26.45
2022-08-14T10:06:31.012Z,26.67
2022-08-14T10:09:11.993Z,26.76
2022-08-14T10:11:59.736Z,27.85
2022-08-14T10:14:37.154Z,26.90
2022-08-14T10:17:10.480Z,27.21
2022-08-14T10:19:49.878Z,26.45
2022-08-14T10:23:21.820Z,26.67
2022-08-14T10:25:23.129Z,26.91
2022-08-14T10:28:00.317Z,27.03
2022-08-14T10:30:37.705Z,26.50
2022-08-14T10:33:11.292Z,26.98
2022-08-14T10:35:48.062Z,27.23
2022-08-14T10:38:33.710Z,27.11
2022-08-14T10:41:15.274Z,27.32
2022-08-14T10:44:20.867Z,27.41
2022-08-14T10:47:39.478Z,27.08
2022-08-14T10:50:03.549Z,26.73
2022-08-14T10:52:38.203Z,26.55
2022-08-14T10:55:19.432Z,27.25
2022-08-14T10:57:57.535Z,27.34
2022-08-14T11:00:35.624Z,27.49
2022-08-14T11:03:19.853Z,27.30
2022-08-14T11:06:18.729Z,27.08
2022-08-14T11:08:52.201Z,27.02
2022-08-14T11:11:28.634Z,27.52
2022-08-14T11:14:10.642Z,27.49
2022-08-14T11:16:49.098Z,26.90
2022-08-14T11:19:27.404Z,27.11
2022-08-14T11:22:04.217Z,27.38
2022-08-14T11:24:54.965Z,27.90
2022-08-14T11:27:33.240Z,26.93
2022-08-14T11:30:50.981Z,26.52
2022-08-14T11:33:07.607Z,27.13
2022-08-14T11:35:47.190Z,27.49
2022-08-14T11:38:25.600Z,27.79
2022-08-14T11:41:00.291Z,27.41
2022-08-14T11:43:40.598Z,27.51
2022-08-14T11:46:17.833Z,27.45
2022-08-14T11:49:05.631Z,27.34
2022-08-14T11:51:52.972Z,27.82
2022-08-14T11:54:33.902Z,27.36
2022-08-14T11:57:15.943Z,27.18
2022-08-14T12:00:03.959Z,27.20
2022-08-14T12:03:02.548Z,26.42
2022-08-14T12:05:46.370Z,26.78
2022-08-14T12:08:24.416Z,26.41
2022-08-14T12:10:58.911Z,26.71
2022-08-14T12:13:34.790Z,26.48
2022-08-14T12:16:20.441Z,26.84
2022-08-14T12:18:59.662Z,26.80
2022-08-14T12:21:34.302Z,26.59
2022-08-14T12:24:36.084Z,26.43
2022-08-14T12:27:03.648Z,26.04
2022-08-14T12:29:36.754Z,26.41
2022-08-14T12:32:13.775Z,26.82
2022-08-14T12:34:55.154Z,27.05
2022-08-14T12:37:32.752Z,26.25
2022-08-14T12:40:19.627Z,26.55
2022-08-14T12:42:56.618Z,26.74
2022-08-14T12:45:36.735Z,26.09
2022-08-14T12:48:21.452Z,26.95
2022-08-14T12:51:03.576Z,26.27
2022-08-14T12:53:39.083Z,26.36
2022-08-14T12:56:21.968Z,26.76
2022-08-14T12:59:06.421Z,26.89
2022-08-14T13:01:59.247Z,26.81
2022-08-14T13:04:35.458Z,27.24
2022-08-14T13:07:08.919Z,26.77
2022-08-14T13:09:44.972Z,26.67
2022-08-14T13:12:35.214Z,26.25
2022-08-14T13:15:17.837Z,26.26
2022-08-14T13:17:56.443Z,26.37
2022-08-14T13:20:33.770Z,26.99
2022-08-14T13:23:09.439Z,25.96
2022-08-14T13:25:55.832Z,26.09
2022-08-14T13:28:34.000Z,25.79
2022-08-14T13:31:11.503Z,25.64
2022-08-14T13:33:45.521Z,25.80
2022-08-14T13:36:24.071Z,24.90
2022-08-14T13:39:13.104Z,24.72
2022-08-14T13:41:48.702Z,25.02
2022-08-14T13:44:29.463Z,25.32
2022-08-14T13:47:06.956Z,25.30
2022-08-14T13:49:57.624Z,25.52
2022-08-14T13:52:52.653Z,25.06
2022-08-14T13:55:29.361Z,24.64
2022-08-14T13:58:05.296Z,25.08
2022-08-14T14:00:52.970Z,24.67
2022-08-14T14:03:30.247Z,24.47
2022-08-14T14:06:05.940Z,24.54
2022-08-14T14:08:48.090Z,23.36
2022-08-14T14:11:23.996Z,23.94
2022-08-14T14:14:00.492Z,23.56
2022-08-14T14:16:34.074Z,23.85
2022-08-14T14:19:10.181Z,23.65
2022-08-14T14:21:44.823Z,23.97
2022-08-14T14:24:20.053Z,23.11
2022-08-14T14:26:53.846Z,23.63
2022-08-14T14:29:33.562Z,23.51
2022-08-14T14:32:21.286Z,23.50
2022-08-14T14:34:55.719Z,23.70
2022-08-14T14:37:31.460Z,24.26
2022-08-14T14:40:52.817Z,24.08
2022-08-14T14:43:04.135Z,24.24
2022-08-14T14:45:45.980Z,24.84
2022-08-14T14:48:20.195Z,24.24
2022-08-14T14:50:53.918Z,24.50
2022-08-14T14:53:28.096Z,24.29
2022-08-14T14:56:51.278Z,23.34
2022-08-14T14:58:59.110Z,23.38
2022-08-14T15:01:36.426Z,24.09
2022-08-14T15:04:20.674Z,23.56
2022-08-14T15:06:54.405Z,23.29
2022-08-14T15:09:27.858Z,23.34
2022-08-14T15:12:02.640Z,23.29
2022-08-14T15:14:55.785Z,23.51
2022-08-14T15:17:40.849Z,23.65
2022-08-14T15:20:29.897Z,23.22
2022-08-14T15:23:11.632Z,23.69
2022-08-14T15:25:52.297Z,23.71
2022-08-14T15:28:26.982Z,22.78
2022-08-14T15:31:00.279Z,23.70
2022-08-14T15:34:13.476Z,23.26
2022-08-14T15:36:46.049Z,23.35
2022-08-14T15:39:19.229Z,23.91
2022-08-14T15:41:53.129Z,23.83
2022-08-14T15:44:36.461Z,23.95
2022-08-14T15:47:09.924Z,24.40
2022-08-14T15:49:44.398Z,24.34
2022-08-14T15:52:32.996Z,24.53
2022-08-14T15:55:12.993Z,24.22
2022-08-14T15:58:01.836Z,24.39
2022-08-14T16:00:55.737Z,23.74
2022-08-14T16:03:35.756Z,24.15
2022-08-14T16:06:18.055Z,24.13
2022-08-14T16:08:58.698Z,24.34
2022-08-14T16:11:33.489Z,24.06
2022-08-14T16:14:09.994Z,23.53
2022-08-14T16:16:51.750Z,22.96
2022-08-14T16:19:39.860Z,23.59
2022-08-14T16:22:59.241Z,23.59
2022-08-14T16:25:34.443Z,24.34
2022-08-14T16:28:08.656Z,24.10
2022-08-14T16:30:45.052Z,24.26
2022-08-14T16:33:27.919Z,25.10
2022-08-14T16:36:30.744Z,24.95
2022-08-14T16:39:08.328Z,23.82
2022-08-14T16:41:51.189Z,23.29
2022-08-14T16:44:33.745Z,23.43
2022-08-14T16:47:12.752Z,23.59
2022-08-14T16:50:04.140Z,23.50
2022-08-14T16:52:44.399Z,23.70
2022-08-14T16:55:19.739Z,23.67
2022-08-14T16:57:58.532Z,24.63
2022-08-14T17:00:43.586Z,24.57
2022-08-14T17:03:17.640Z,25.69
2022-08-14T17:05:51.034Z,26.06
2022-08-14T17:08:41.689Z,25.72
2022-08-14T17:11:18.706Z,25.51
2022-08-14T17:14:00.213Z,26.76
2022-08-14T17:16:37.838Z,27.38
2022-08-14T17:19:14.143Z,27.94
2022-08-14T17:21:51.483Z,29.14
2022-08-14T17:24:57.230Z,29.53
2022-08-14T17:27:23.470Z,30.18
2022-08-14T17:29:57.681Z,30.91
2022-08-14T17:32:55.641Z,31.92
2022-08-14T17:38:39.581Z,33.22
2022-08-14T17:44:34.235Z,33.40
2022-08-14T17:47:20.347Z,33.46
2022-08-14T17:49:53.857Z,33.91
2022-08-14T17:52:34.807Z,34.62
2022-08-14T17:56:00.441Z,34.47
2022-08-14T17:58:20.341Z,35.57
2022-08-14T18:00:57.813Z,35.87
2022-08-14T18:03:50.195Z,35.99
2022-08-14T18:06:39.903Z,36.68
2022-08-14T18:09:26.061Z,36.51
2022-08-14T18:12:03.953Z,37.52
2022-08-14T18:14:48.854Z,37.97
2022-08-14T18:17:27.948Z,38.65
2022-08-14T18:21:24.810Z,39.21
2022-08-14T18:22:57.572Z,39.87
2022-08-14T18:25:35.554Z,40.18
2022-08-14T18:28:18.060Z,40.35
2022-08-14T18:31:43.655Z,41.02
2022-08-14T18:34:31.899Z,40.74
2022-08-14T18:37:16.941Z,41.41
2022-08-14T18:40:02.512Z,42.20
2022-08-14T18:42:46.838Z,41.93
2022-08-14T18:45:28.590Z,42.64
2022-08-14T18:48:28.461Z,43.14
2022-08-14T18:51:10.626Z,43.05
2022-08-14T18:54:01.845Z,43.30
2022-08-14T18:56:58.940Z,42.99
2022-08-14T18:59:37.369Z,42.31
2022-08-14T19:02:45.837Z,42.20
2022-08-14T19:05:59.546Z,41.56
2022-08-14T19:08:38.498Z,41.36
2022-08-14T19:11:45.064Z,41.00
2022-08-14T19:14:47.514Z,40.99
2022-08-14T19:18:14.004Z,41.66
2022-08-14T19:20:52.876Z,41.27
2022-08-14T19:23:40.619Z,41.55
2022-08-14T19:26:36.956Z,41.69
2022-08-14T19:29:23.684Z,42.22
2022-08-14T19:31:58.979Z,42.20
2022-08-14T19:34:52.251Z,42.28
2022-08-14T19:37:52.041Z,42.83
2022-08-14T19:40:38.491Z,45.33
2022-08-14T19:43:55.546Z,45.88
2022-08-14T19:46:38.496Z,46.61
2022-08-14T19:49:21.322Z,47.27
2022-08-14T19:51:56.623Z,47.12
2022-08-14T19:54:31.607Z,47.15
2022-08-14T19:57:18.883Z,47.00
2022-08-14T20:00:04.529Z,47.09
2022-08-14T20:02:38.031Z,46.99
2022-08-14T20:05:12.454Z,47.61
2022-08-14T20:07:59.327Z,47.86
2022-08-14T20:11:11.044Z,47.78
2022-08-14T20:13:38.611Z,47.11
2022-08-14T20:16:21.170Z,47.33
2022-08-14T20:19:23.220Z,47.78
2022-08-14T20:22:04.666Z,47.91
2022-08-14T20:24:54.383Z,47.88
2022-08-14T20:27:39.608Z,47.71
2022-08-14T20:30:33.942Z,47.85
2022-08-14T20:33:11.816Z,47.98
2022-08-14T20:35:51.553Z,48.37
2022-08-14T20:38:33.547Z,47.99
2022-08-14T20:41:12.444Z,47.27
2022-08-14T20:44:06.650Z,46.27
2022-08-14T20:46:42.303Z,46.86
2022-08-14T20:49:18.528Z,47.17
2022-08-14T20:52:00.193Z,47.78
2022-08-14T20:54:50.174Z,47.32
2022-08-14T20:57:23.945Z,47.80
2022-08-14T20:59:57.722Z,47.88
2022-08-14T21:02:38.707Z,48.45
2022-08-14T21:05:34.032Z,48.76
2022-08-14T21:08:22.591Z,48.88
2022-08-14T21:11:02.705Z,48.90
2022-08-14T21:14:20.963Z,48.97
2022-08-14T21:16:33.510Z,49.67
2022-08-14T21:19:09.363Z,49.72
2022-08-14T21:21:55.008Z,50.16
2022-08-14T21:24:47.048Z,50.29
2022-08-14T21:27:23.004Z,50.26
2022-08-14T21:29:56.812Z,50.30
2022-08-14T21:32:50.580Z,50.56
2022-08-14T21:35:31.833Z,50.75
2022-08-14T21:38:17.883Z,50.96
2022-08-14T21:40:55.514Z,50.89
2022-08-14T21:43:32.312Z,50.97
2022-08-14T21:46:05.965Z,51.44
2022-08-14T21:48:39.115Z,51.51
2022-08-14T21:51:53.866Z,51.70
2022-08-14T21:54:30.398Z,51.93
2022-08-14T21:57:13.761Z,52.20
2022-08-14T21:59:49.378Z,51.94
2022-08-14T22:02:32.489Z,51.65
2022-08-14T22:05:07.325Z,51.52
2022-08-14T22:07:41.800Z,51.36
2022-08-14T22:10:22.939Z,51.50
2022-08-14T22:13:01.160Z,51.48
2022-08-14T22:15:35.521Z,52.10
2022-08-14T22:18:20.426Z,52.11
2022-08-14T22:20:56.477Z,52.32
2022-08-14T22:23:31.363Z,52.55
2022-08-14T22:26:05.917Z,52.32
2022-08-14T22:28:39.080Z,51.46
2022-08-14T22:31:23.111Z,51.19
2022-08-14T22:33:57.878Z,51.46
2022-08-14T22:36:49.888Z,51.67
2022-08-14T22:40:14.528Z,51.57
2022-08-14T22:42:23.261Z,51.69
2022-08-14T22:44:57.009Z,51.15
2022-08-14T22:47:40.528Z,51.27
2022-08-14T22:50:31.703Z,51.97
2022-08-14T22:53:07.006Z,52.13
2022-08-14T22:55:44.738Z,51.74
2022-08-14T22:58:30.349Z,51.47
2022-08-14T23:01:11.972Z,51.94
2022-08-14T23:03:46.015Z,51.83
2022-08-14T23:07:02.053Z,51.68
2022-08-14T23:09:35.926Z,51.75
2022-08-14T23:12:28.068Z,52.21
2022-08-14T23:15:02.319Z,52.43
2022-08-14T23:17:40.485Z,52.52
2022-08-14T23:20:19.787Z,52.55
2022-08-14T23:22:55.687Z,52.54
2022-08-14T23:25:57.511Z,52.33
2022-08-14T23:28:33.281Z,51.88
2022-08-14T23:31:33.469Z,52.27
2022-08-14T23:34:20.617Z,52.16
2022-08-14T23:36:59.216Z,52.79
2022-08-14T23:39:39.165Z,53.17
2022-08-14T23:42:13.377Z,52.82
2022-08-14T23:44:52.612Z,52.76
2022-08-14T23:47:26.627Z,52.64
2022-08-14T23:50:04.202Z,52.61
2022-08-14T23:52:50.500Z,52.81
2022-08-14T23:55:35.235Z,53.29
2022-08-14T23:58:08.459Z,53.03
